Terminal Aerodrome Forecast
Issued by NWS

Home | Current Version | Previous Version | Text Only | Print | Product List | Glossary On
Versions: 1 2 3 4 5 6 7 8 9 10 11 12 13 14 15
000
FTUS43 KIND 021700
TAFBMG
TAF
KBMG 021731Z 0218/0318 17010KT P6SM SCT035 BKN100
     FM030300 18012G22KT 5SM -SHRA VCTS SCT025CB OVC040
      TEMPO 0304/0308 2SM TSRA BKN025 OVC040CB
     FM031200 24012KT 5SM -SHRA BKN015
     FM031600 28015G25KT P6SM BKN009=

USA.gov is the U.S. government's official web portal to all federal, state and local government web resources and services.